sensor_id;sensor_type;location;lat;lon;timestamp;P1;durP1;ratioP1;P2;durP2;ratioP2
64339;SDS011;50674;53.290;-9.080;2022-07-22T00:02:06;5.90;;;2.65;;
64339;SDS011;50674;53.290;-9.080;2022-07-22T00:04:32;7.88;;;2.40;;
64339;SDS011;50674;53.290;-9.080;2022-07-22T00:06:58;5.50;;;2.45;;
64339;SDS011;50674;53.290;-9.080;2022-07-22T00:09:24;6.78;;;2.58;;
64339;SDS011;50674;53.290;-9.080;2022-07-22T00:11:49;7.63;;;2.78;;
64339;SDS011;50674;53.290;-9.080;2022-07-22T00:14:15;8.10;;;2.70;;
64339;SDS011;50674;53.290;-9.080;2022-07-22T00:16:41;5.78;;;2.70;;
64339;SDS011;50674;53.290;-9.080;2022-07-22T00:19:07;6.53;;;2.97;;
64339;SDS011;50674;53.290;-9.080;2022-07-22T00:23:59;6.82;;;2.50;;
64339;SDS011;50674;53.290;-9.080;2022-07-22T00:26:25;5.47;;;2.60;;
64339;SDS011;50674;53.290;-9.080;2022-07-22T00:28:51;4.85;;;2.40;;
64339;SDS011;50674;53.290;-9.080;2022-07-22T00:31:16;8.05;;;2.40;;
64339;SDS011;50674;53.290;-9.080;2022-07-22T00:33:42;4.72;;;2.33;;
64339;SDS011;50674;53.290;-9.080;2022-07-22T00:36:08;4.90;;;2.25;;
64339;SDS011;50674;53.290;-9.080;2022-07-22T00:38:34;8.50;;;2.90;;
64339;SDS011;50674;53.290;-9.080;2022-07-22T00:41:00;4.30;;;2.13;;
64339;SDS011;50674;53.290;-9.080;2022-07-22T00:43:26;6.00;;;2.22;;
64339;SDS011;50674;53.290;-9.080;2022-07-22T00:46:30;6.40;;;2.65;;
64339;SDS011;50674;53.290;-9.080;2022-07-22T00:48:57;4.72;;;2.63;;
64339;SDS011;50674;53.290;-9.080;2022-07-22T00:51:24;6.90;;;3.03;;
64339;SDS011;50674;53.290;-9.080;2022-07-22T00:53:52;4.97;;;2.55;;
64339;SDS011;50674;53.290;-9.080;2022-07-22T00:56:19;6.07;;;2.53;;
64339;SDS011;50674;53.290;-9.080;2022-07-22T00:58:45;5.38;;;2.50;;
64339;SDS011;50674;53.290;-9.080;2022-07-22T01:01:12;4.80;;;2.40;;
64339;SDS011;50674;53.290;-9.080;2022-07-22T01:03:38;11.50;;;2.63;;
64339;SDS011;50674;53.290;-9.080;2022-07-22T01:06:05;4.13;;;2.53;;
64339;SDS011;50674;53.290;-9.080;2022-07-22T01:08:32;4.78;;;2.88;;
64339;SDS011;50674;53.290;-9.080;2022-07-22T01:11:11;5.53;;;2.50;;
64339;SDS011;50674;53.290;-9.080;2022-07-22T01:13:41;5.85;;;2.53;;
64339;SDS011;50674;53.290;-9.080;2022-07-22T01:16:08;4.57;;;2.50;;
64339;SDS011;50674;53.290;-9.080;2022-07-22T01:18:34;7.50;;;2.65;;
64339;SDS011;50674;53.290;-9.080;2022-07-22T01:21:01;6.40;;;2.63;;
64339;SDS011;50674;53.290;-9.080;2022-07-22T01:23:27;10.00;;;3.08;;
64339;SDS011;50674;53.290;-9.080;2022-07-22T01:25:53;4.82;;;2.72;;
64339;SDS011;50674;53.290;-9.080;2022-07-22T01:28:19;6.05;;;2.63;;
64339;SDS011;50674;53.290;-9.080;2022-07-22T01:30:45;4.85;;;2.33;;
64339;SDS011;50674;53.290;-9.080;2022-07-22T01:33:11;4.68;;;2.33;;
64339;SDS011;50674;53.290;-9.080;2022-07-22T01:35:37;4.15;;;2.28;;
64339;SDS011;50674;53.290;-9.080;2022-07-22T01:38:03;5.72;;;3.03;;
64339;SDS011;50674;53.290;-9.080;2022-07-22T01:40:28;4.88;;;2.63;;
64339;SDS011;50674;53.290;-9.080;2022-07-22T01:42:54;4.40;;;2.45;;
64339;SDS011;50674;53.290;-9.080;2022-07-22T01:45:20;6.53;;;2.90;;
64339;SDS011;50674;53.290;-9.080;2022-07-22T01:47:46;5.45;;;2.30;;
64339;SDS011;50674;53.290;-9.080;2022-07-22T01:50:11;4.03;;;2.33;;
64339;SDS011;50674;53.290;-9.080;2022-07-22T01:52:38;6.18;;;2.90;;
64339;SDS011;50674;53.290;-9.080;2022-07-22T01:55:05;3.88;;;2.15;;
64339;SDS011;50674;53.290;-9.080;2022-07-22T01:57:32;5.90;;;2.67;;
64339;SDS011;50674;53.290;-9.080;2022-07-22T01:59:58;5.22;;;2.42;;
64339;SDS011;50674;53.290;-9.080;2022-07-22T02:02:23;4.30;;;2.28;;
64339;SDS011;50674;53.290;-9.080;2022-07-22T02:04:49;4.28;;;2.50;;
64339;SDS011;50674;53.290;-9.080;2022-07-22T02:07:15;5.47;;;2.45;;
64339;SDS011;50674;53.290;-9.080;2022-07-22T02:09:41;6.00;;;2.95;;
64339;SDS011;50674;53.290;-9.080;2022-07-22T02:12:07;4.55;;;2.50;;
64339;SDS011;50674;53.290;-9.080;2022-07-22T02:14:39;5.47;;;3.10;;
64339;SDS011;50674;53.290;-9.080;2022-07-22T02:17:05;7.10;;;2.80;;
64339;SDS011;50674;53.290;-9.080;2022-07-22T02:19:31;10.40;;;3.28;;
64339;SDS011;50674;53.290;-9.080;2022-07-22T02:21:57;5.25;;;2.70;;
64339;SDS011;50674;53.290;-9.080;2022-07-22T02:24:23;5.35;;;3.00;;
64339;SDS011;50674;53.290;-9.080;2022-07-22T02:26:49;5.43;;;2.85;;
64339;SDS011;50674;53.290;-9.080;2022-07-22T02:29:15;6.38;;;2.65;;
64339;SDS011;50674;53.290;-9.080;2022-07-22T02:31:41;6.25;;;2.60;;
64339;SDS011;50674;53.290;-9.080;2022-07-22T02:34:07;4.50;;;2.60;;
64339;SDS011;50674;53.290;-9.080;2022-07-22T02:36:33;6.28;;;2.92;;
64339;SDS011;50674;53.290;-9.080;2022-07-22T02:38:59;7.28;;;4.22;;
64339;SDS011;50674;53.290;-9.080;2022-07-22T02:41:25;6.53;;;3.90;;
64339;SDS011;50674;53.290;-9.080;2022-07-22T02:43:51;6.75;;;2.85;;
64339;SDS011;50674;53.290;-9.080;2022-07-22T02:46:20;8.40;;;3.20;;
64339;SDS011;50674;53.290;-9.080;2022-07-22T02:48:47;7.05;;;2.70;;
64339;SDS011;50674;53.290;-9.080;2022-07-22T02:51:13;4.30;;;2.78;;
64339;SDS011;50674;53.290;-9.080;2022-07-22T02:53:38;6.50;;;2.97;;
64339;SDS011;50674;53.290;-9.080;2022-07-22T02:56:04;7.18;;;3.00;;
64339;SDS011;50674;53.290;-9.080;2022-07-22T02:58:30;4.47;;;2.80;;
64339;SDS011;50674;53.290;-9.080;2022-07-22T03:00:56;8.50;;;2.88;;
64339;SDS011;50674;53.290;-9.080;2022-07-22T03:03:22;4.50;;;2.72;;
64339;SDS011;50674;53.290;-9.080;2022-07-22T03:05:48;7.57;;;3.00;;
64339;SDS011;50674;53.290;-9.080;2022-07-22T03:08:15;5.10;;;2.70;;
64339;SDS011;50674;53.290;-9.080;2022-07-22T03:10:41;4.03;;;2.70;;
64339;SDS011;50674;53.290;-9.080;2022-07-22T03:13:07;8.25;;;2.90;;
64339;SDS011;50674;53.290;-9.080;2022-07-22T03:15:32;7.57;;;3.30;;
64339;SDS011;50674;53.290;-9.080;2022-07-22T03:18:18;7.30;;;3.00;;
64339;SDS011;50674;53.290;-9.080;2022-07-22T03:20:44;8.40;;;3.08;;
64339;SDS011;50674;53.290;-9.080;2022-07-22T03:23:10;6.13;;;2.83;;
64339;SDS011;50674;53.290;-9.080;2022-07-22T03:25:35;4.72;;;2.88;;
64339;SDS011;50674;53.290;-9.080;2022-07-22T03:28:02;5.65;;;2.70;;
64339;SDS011;50674;53.290;-9.080;2022-07-22T03:30:29;5.63;;;2.70;;
64339;SDS011;50674;53.290;-9.080;2022-07-22T03:32:57;7.22;;;3.45;;
64339;SDS011;50674;53.290;-9.080;2022-07-22T03:35:23;4.43;;;2.95;;
64339;SDS011;50674;53.290;-9.080;2022-07-22T03:37:49;6.28;;;3.15;;
64339;SDS011;50674;53.290;-9.080;2022-07-22T03:40:14;4.18;;;2.40;;
64339;SDS011;50674;53.290;-9.080;2022-07-22T03:42:40;5.07;;;2.63;;
64339;SDS011;50674;53.290;-9.080;2022-07-22T03:45:07;7.53;;;3.47;;
64339;SDS011;50674;53.290;-9.080;2022-07-22T03:47:33;8.05;;;3.20;;
64339;SDS011;50674;53.290;-9.080;2022-07-22T03:49:59;6.40;;;3.42;;
64339;SDS011;50674;53.290;-9.080;2022-07-22T03:52:27;8.73;;;3.20;;
64339;SDS011;50674;53.290;-9.080;2022-07-22T03:54:55;6.70;;;3.60;;
64339;SDS011;50674;53.290;-9.080;2022-07-22T03:57:20;6.30;;;3.10;;
64339;SDS011;50674;53.290;-9.080;2022-07-22T03:59:47;8.93;;;3.47;;
64339;SDS011;50674;53.290;-9.080;2022-07-22T04:02:12;5.85;;;3.30;;
64339;SDS011;50674;53.290;-9.080;2022-07-22T04:07:05;6.75;;;3.10;;
64339;SDS011;50674;53.290;-9.080;2022-07-22T04:09:31;4.75;;;2.75;;
64339;SDS011;50674;53.290;-9.080;2022-07-22T04:11:58;7.75;;;3.30;;
64339;SDS011;50674;53.290;-9.080;2022-07-22T04:14:24;9.52;;;3.85;;
64339;SDS011;50674;53.290;-9.080;2022-07-22T04:16:49;4.22;;;2.50;;
64339;SDS011;50674;53.290;-9.080;2022-07-22T04:19:15;7.53;;;2.90;;
64339;SDS011;50674;53.290;-9.080;2022-07-22T04:21:41;5.43;;;3.03;;
64339;SDS011;50674;53.290;-9.080;2022-07-22T04:24:07;6.75;;;3.40;;
64339;SDS011;50674;53.290;-9.080;2022-07-22T04:26:33;4.93;;;2.42;;
64339;SDS011;50674;53.290;-9.080;2022-07-22T04:29:18;5.97;;;3.20;;
64339;SDS011;50674;53.290;-9.080;2022-07-22T04:31:44;5.70;;;3.42;;
64339;SDS011;50674;53.290;-9.080;2022-07-22T04:34:16;5.05;;;3.50;;
64339;SDS011;50674;53.290;-9.080;2022-07-22T04:36:41;7.60;;;3.40;;
64339;SDS011;50674;53.290;-9.080;2022-07-22T04:39:07;7.80;;;3.60;;
64339;SDS011;50674;53.290;-9.080;2022-07-22T04:41:33;7.80;;;3.90;;
64339;SDS011;50674;53.290;-9.080;2022-07-22T04:43:59;7.57;;;3.08;;
64339;SDS011;50674;53.290;-9.080;2022-07-22T04:46:25;6.32;;;3.45;;
64339;SDS011;50674;53.290;-9.080;2022-07-22T04:48:51;6.07;;;3.47;;
64339;SDS011;50674;53.290;-9.080;2022-07-22T04:51:17;9.52;;;3.58;;
64339;SDS011;50674;53.290;-9.080;2022-07-22T04:53:43;6.07;;;3.17;;
64339;SDS011;50674;53.290;-9.080;2022-07-22T04:56:08;6.60;;;2.90;;
64339;SDS011;50674;53.290;-9.080;2022-07-22T04:58:34;6.28;;;2.95;;
64339;SDS011;50674;53.290;-9.080;2022-07-22T05:01:00;5.25;;;3.00;;
64339;SDS011;50674;53.290;-9.080;2022-07-22T05:03:27;4.30;;;2.97;;
64339;SDS011;50674;53.290;-9.080;2022-07-22T05:05:52;5.28;;;2.95;;
64339;SDS011;50674;53.290;-9.080;2022-07-22T05:08:18;5.95;;;2.97;;
64339;SDS011;50674;53.290;-9.080;2022-07-22T05:10:44;6.32;;;2.92;;
64339;SDS011;50674;53.290;-9.080;2022-07-22T05:13:11;6.95;;;3.13;;
64339;SDS011;50674;53.290;-9.080;2022-07-22T05:15:38;6.40;;;3.17;;
64339;SDS011;50674;53.290;-9.080;2022-07-22T05:18:04;6.38;;;3.40;;
64339;SDS011;50674;53.290;-9.080;2022-07-22T05:20:29;6.68;;;3.50;;
64339;SDS011;50674;53.290;-9.080;2022-07-22T05:22:56;8.75;;;3.25;;
64339;SDS011;50674;53.290;-9.080;2022-07-22T05:25:22;5.85;;;3.13;;
64339;SDS011;50674;53.290;-9.080;2022-07-22T05:27:51;5.80;;;2.97;;
64339;SDS011;50674;53.290;-9.080;2022-07-22T05:30:18;7.88;;;2.90;;
64339;SDS011;50674;53.290;-9.080;2022-07-22T05:32:45;6.47;;;3.17;;
64339;SDS011;50674;53.290;-9.080;2022-07-22T05:37:36;6.57;;;3.10;;
64339;SDS011;50674;53.290;-9.080;2022-07-22T05:40:02;5.95;;;3.05;;
64339;SDS011;50674;53.290;-9.080;2022-07-22T05:42:28;6.18;;;2.58;;
64339;SDS011;50674;53.290;-9.080;2022-07-22T05:44:53;5.90;;;3.17;;
64339;SDS011;50674;53.290;-9.080;2022-07-22T05:47:39;7.85;;;2.85;;
64339;SDS011;50674;53.290;-9.080;2022-07-22T05:50:05;6.85;;;3.20;;
64339;SDS011;50674;53.290;-9.080;2022-07-22T05:54:59;10.65;;;3.10;;
64339;SDS011;50674;53.290;-9.080;2022-07-22T05:57:46;7.28;;;2.97;;
64339;SDS011;50674;53.290;-9.080;2022-07-22T06:00:12;10.32;;;2.97;;
64339;SDS011;50674;53.290;-9.080;2022-07-22T06:02:38;5.03;;;2.90;;
64339;SDS011;50674;53.290;-9.080;2022-07-22T06:05:04;8.45;;;3.45;;
64339;SDS011;50674;53.290;-9.080;2022-07-22T06:07:31;6.40;;;3.28;;
64339;SDS011;50674;53.290;-9.080;2022-07-22T06:09:57;5.85;;;3.50;;
64339;SDS011;50674;53.290;-9.080;2022-07-22T06:12:22;7.00;;;3.00;;
64339;SDS011;50674;53.290;-9.080;2022-07-22T06:14:48;10.52;;;3.60;;
64339;SDS011;50674;53.290;-9.080;2022-07-22T06:17:14;9.45;;;3.75;;
64339;SDS011;50674;53.290;-9.080;2022-07-22T06:19:40;8.88;;;3.33;;
64339;SDS011;50674;53.290;-9.080;2022-07-22T06:22:06;6.00;;;3.78;;
64339;SDS011;50674;53.290;-9.080;2022-07-22T06:24:31;6.13;;;3.13;;
64339;SDS011;50674;53.290;-9.080;2022-07-22T06:26:57;6.97;;;3.00;;
64339;SDS011;50674;53.290;-9.080;2022-07-22T06:29:23;5.15;;;3.33;;
64339;SDS011;50674;53.290;-9.080;2022-07-22T06:31:49;6.00;;;2.80;;
64339;SDS011;50674;53.290;-9.080;2022-07-22T06:34:14;6.50;;;3.33;;
64339;SDS011;50674;53.290;-9.080;2022-07-22T06:36:40;8.10;;;3.17;;
64339;SDS011;50674;53.290;-9.080;2022-07-22T06:39:06;7.20;;;2.90;;
64339;SDS011;50674;53.290;-9.080;2022-07-22T06:43:58;6.32;;;3.35;;
64339;SDS011;50674;53.290;-9.080;2022-07-22T06:46:23;6.07;;;2.90;;
64339;SDS011;50674;53.290;-9.080;2022-07-22T06:48:49;6.03;;;3.30;;
64339;SDS011;50674;53.290;-9.080;2022-07-22T06:51:16;8.18;;;3.65;;
64339;SDS011;50674;53.290;-9.080;2022-07-22T06:53:42;7.18;;;3.55;;
64339;SDS011;50674;53.290;-9.080;2022-07-22T06:56:08;5.88;;;3.42;;
64339;SDS011;50674;53.290;-9.080;2022-07-22T06:58:34;6.50;;;3.60;;
64339;SDS011;50674;53.290;-9.080;2022-07-22T07:00:59;5.85;;;3.63;;
64339;SDS011;50674;53.290;-9.080;2022-07-22T07:03:25;11.23;;;3.40;;
64339;SDS011;50674;53.290;-9.080;2022-07-22T07:05:51;9.93;;;3.95;;
64339;SDS011;50674;53.290;-9.080;2022-07-22T07:10:43;8.05;;;3.40;;
64339;SDS011;50674;53.290;-9.080;2022-07-22T07:13:09;8.07;;;4.20;;
64339;SDS011;50674;53.290;-9.080;2022-07-22T07:15:35;7.50;;;3.72;;
64339;SDS011;50674;53.290;-9.080;2022-07-22T07:20:26;7.18;;;3.72;;
64339;SDS011;50674;53.290;-9.080;2022-07-22T07:22:52;9.90;;;3.92;;
64339;SDS011;50674;53.290;-9.080;2022-07-22T07:25:18;6.25;;;3.63;;
64339;SDS011;50674;53.290;-9.080;2022-07-22T07:30:10;7.82;;;4.00;;
64339;SDS011;50674;53.290;-9.080;2022-07-22T07:35:03;6.63;;;4.10;;
64339;SDS011;50674;53.290;-9.080;2022-07-22T07:37:32;7.78;;;3.95;;
64339;SDS011;50674;53.290;-9.080;2022-07-22T07:39:58;9.65;;;4.20;;
64339;SDS011;50674;53.290;-9.080;2022-07-22T07:42:25;8.77;;;4.35;;
64339;SDS011;50674;53.290;-9.080;2022-07-22T07:44:51;9.82;;;4.13;;
64339;SDS011;50674;53.290;-9.080;2022-07-22T07:49:46;11.20;;;4.80;;
64339;SDS011;50674;53.290;-9.080;2022-07-22T07:52:15;8.20;;;3.90;;
64339;SDS011;50674;53.290;-9.080;2022-07-22T07:54:43;6.47;;;3.80;;
64339;SDS011;50674;53.290;-9.080;2022-07-22T07:57:10;5.03;;;3.30;;
64339;SDS011;50674;53.290;-9.080;2022-07-22T08:02:03;5.32;;;3.10;;
64339;SDS011;50674;53.290;-9.080;2022-07-22T08:04:49;7.82;;;4.13;;
64339;SDS011;50674;53.290;-9.080;2022-07-22T08:07:14;6.40;;;3.90;;
64339;SDS011;50674;53.290;-9.080;2022-07-22T08:12:07;8.95;;;3.70;;
64339;SDS011;50674;53.290;-9.080;2022-07-22T08:17:00;7.80;;;3.47;;
64339;SDS011;50674;53.290;-9.080;2022-07-22T08:19:27;5.68;;;2.72;;
64339;SDS011;50674;53.290;-9.080;2022-07-22T08:21:53;9.32;;;3.22;;
64339;SDS011;50674;53.290;-9.080;2022-07-22T08:24:18;6.32;;;2.72;;
64339;SDS011;50674;53.290;-9.080;2022-07-22T08:26:46;5.90;;;2.35;;
64339;SDS011;50674;53.290;-9.080;2022-07-22T08:29:12;6.18;;;2.65;;
64339;SDS011;50674;53.290;-9.080;2022-07-22T08:31:39;9.23;;;3.03;;
64339;SDS011;50674;53.290;-9.080;2022-07-22T08:34:05;6.38;;;2.90;;
64339;SDS011;50674;53.290;-9.080;2022-07-22T08:36:32;7.30;;;3.15;;
64339;SDS011;50674;53.290;-9.080;2022-07-22T08:38:58;8.68;;;2.85;;
64339;SDS011;50674;53.290;-9.080;2022-07-22T08:41:24;6.97;;;2.67;;
64339;SDS011;50674;53.290;-9.080;2022-07-22T08:43:51;6.68;;;2.55;;
64339;SDS011;50674;53.290;-9.080;2022-07-22T08:46:18;4.05;;;2.20;;
64339;SDS011;50674;53.290;-9.080;2022-07-22T08:48:44;5.78;;;2.45;;
64339;SDS011;50674;53.290;-9.080;2022-07-22T08:51:11;5.15;;;2.00;;
64339;SDS011;50674;53.290;-9.080;2022-07-22T08:53:37;6.38;;;2.28;;
64339;SDS011;50674;53.290;-9.080;2022-07-22T08:56:04;5.05;;;2.42;;
64339;SDS011;50674;53.290;-9.080;2022-07-22T08:58:30;11.75;;;2.80;;
64339;SDS011;50674;53.290;-9.080;2022-07-22T09:03:31;4.70;;;2.03;;
64339;SDS011;50674;53.290;-9.080;2022-07-22T09:05:57;4.72;;;2.00;;
64339;SDS011;50674;53.290;-9.080;2022-07-22T09:08:24;6.15;;;2.13;;
64339;SDS011;50674;53.290;-9.080;2022-07-22T09:10:50;4.57;;;2.20;;
64339;SDS011;50674;53.290;-9.080;2022-07-22T09:13:16;9.00;;;2.38;;
64339;SDS011;50674;53.290;-9.080;2022-07-22T09:15:48;7.38;;;2.45;;
64339;SDS011;50674;53.290;-9.080;2022-07-22T09:18:18;5.97;;;2.15;;
64339;SDS011;50674;53.290;-9.080;2022-07-22T09:23:14;4.82;;;1.98;;
64339;SDS011;50674;53.290;-9.080;2022-07-22T09:25:48;5.95;;;2.35;;
64339;SDS011;50674;53.290;-9.080;2022-07-22T09:30:51;4.35;;;2.08;;
64339;SDS011;50674;53.290;-9.080;2022-07-22T09:33:19;3.40;;;1.70;;
64339;SDS011;50674;53.290;-9.080;2022-07-22T09:35:47;5.88;;;2.30;;
64339;SDS011;50674;53.290;-9.080;2022-07-22T09:38:14;3.90;;;1.83;;
64339;SDS011;50674;53.290;-9.080;2022-07-22T09:40:42;5.88;;;2.00;;
64339;SDS011;50674;53.290;-9.080;2022-07-22T09:43:13;6.80;;;1.90;;
64339;SDS011;50674;53.290;-9.080;2022-07-22T09:45:52;4.40;;;1.70;;
64339;SDS011;50674;53.290;-9.080;2022-07-22T09:48:22;6.22;;;2.00;;
64339;SDS011;50674;53.290;-9.080;2022-07-22T09:50:49;5.75;;;1.90;;
64339;SDS011;50674;53.290;-9.080;2022-07-22T09:53:17;4.68;;;1.90;;
64339;SDS011;50674;53.290;-9.080;2022-07-22T09:55:44;2.85;;;1.80;;
64339;SDS011;50674;53.290;-9.080;2022-07-22T09:58:12;4.90;;;1.90;;
64339;SDS011;50674;53.290;-9.080;2022-07-22T10:00:39;5.07;;;1.98;;
64339;SDS011;50674;53.290;-9.080;2022-07-22T10:03:07;4.10;;;2.05;;
64339;SDS011;50674;53.290;-9.080;2022-07-22T10:05:37;7.57;;;2.10;;
64339;SDS011;50674;53.290;-9.080;2022-07-22T10:08:06;4.80;;;1.92;;
64339;SDS011;50674;53.290;-9.080;2022-07-22T10:10:35;3.65;;;1.90;;
64339;SDS011;50674;53.290;-9.080;2022-07-22T10:13:22;8.00;;;2.00;;
64339;SDS011;50674;53.290;-9.080;2022-07-22T10:18:14;4.45;;;1.65;;
64339;SDS011;50674;53.290;-9.080;2022-07-22T10:20:44;4.60;;;1.63;;
64339;SDS011;50674;53.290;-9.080;2022-07-22T10:23:11;5.63;;;1.70;;
64339;SDS011;50674;53.290;-9.080;2022-07-22T10:25:54;4.63;;;1.67;;
64339;SDS011;50674;53.290;-9.080;2022-07-22T10:28:28;9.07;;;2.08;;
64339;SDS011;50674;53.290;-9.080;2022-07-22T10:33:56;5.28;;;1.92;;
64339;SDS011;50674;53.290;-9.080;2022-07-22T10:36:35;4.35;;;1.77;;
64339;SDS011;50674;53.290;-9.080;2022-07-22T10:39:09;3.85;;;1.60;;
64339;SDS011;50674;53.290;-9.080;2022-07-22T10:41:37;4.57;;;1.95;;
64339;SDS011;50674;53.290;-9.080;2022-07-22T10:44:10;4.32;;;1.95;;
64339;SDS011;50674;53.290;-9.080;2022-07-22T10:46:49;5.20;;;1.65;;
64339;SDS011;50674;53.290;-9.080;2022-07-22T10:49:22;3.60;;;1.70;;
64339;SDS011;50674;53.290;-9.080;2022-07-22T10:52:09;3.67;;;1.80;;
64339;SDS011;50674;53.290;-9.080;2022-07-22T10:57:55;5.78;;;1.80;;
64339;SDS011;50674;53.290;-9.080;2022-07-22T11:00:21;6.18;;;1.80;;
64339;SDS011;50674;53.290;-9.080;2022-07-22T11:02:47;4.03;;;1.55;;
64339;SDS011;50674;53.290;-9.080;2022-07-22T11:07:43;5.28;;;1.67;;
64339;SDS011;50674;53.290;-9.080;2022-07-22T11:10:11;4.90;;;1.52;;
64339;SDS011;50674;53.290;-9.080;2022-07-22T11:12:41;3.08;;;1.70;;
64339;SDS011;50674;53.290;-9.080;2022-07-22T11:15:07;2.97;;;1.70;;
64339;SDS011;50674;53.290;-9.080;2022-07-22T11:17:34;4.05;;;1.60;;
64339;SDS011;50674;53.290;-9.080;2022-07-22T11:20:03;3.40;;;1.65;;
64339;SDS011;50674;53.290;-9.080;2022-07-22T11:22:32;3.47;;;1.70;;
64339;SDS011;50674;53.290;-9.080;2022-07-22T11:25:08;1.55;;;1.20;;
64339;SDS011;50674;53.290;-9.080;2022-07-22T11:27:35;4.80;;;1.95;;
64339;SDS011;50674;53.290;-9.080;2022-07-22T11:30:03;3.40;;;1.20;;
64339;SDS011;50674;53.290;-9.080;2022-07-22T11:32:32;6.70;;;1.73;;
64339;SDS011;50674;53.290;-9.080;2022-07-22T11:34:58;2.80;;;1.52;;
64339;SDS011;50674;53.290;-9.080;2022-07-22T11:37:25;3.38;;;1.65;;
64339;SDS011;50674;53.290;-9.080;2022-07-22T11:40:03;3.72;;;1.50;;
64339;SDS011;50674;53.290;-9.080;2022-07-22T11:42:31;2.13;;;1.20;;
64339;SDS011;50674;53.290;-9.080;2022-07-22T11:44:57;5.70;;;1.48;;
64339;SDS011;50674;53.290;-9.080;2022-07-22T11:47:24;4.40;;;1.95;;
64339;SDS011;50674;53.290;-9.080;2022-07-22T11:49:51;6.32;;;2.00;;
64339;SDS011;50674;53.290;-9.080;2022-07-22T11:52:17;3.15;;;1.60;;
64339;SDS011;50674;53.290;-9.080;2022-07-22T11:54:44;6.03;;;1.85;;
64339;SDS011;50674;53.290;-9.080;2022-07-22T11:57:11;3.17;;;1.50;;
64339;SDS011;50674;53.290;-9.080;2022-07-22T11:59:41;3.72;;;1.60;;
64339;SDS011;50674;53.290;-9.080;2022-07-22T12:02:07;5.28;;;1.85;;
64339;SDS011;50674;53.290;-9.080;2022-07-22T12:04:34;3.83;;;2.13;;
64339;SDS011;50674;53.290;-9.080;2022-07-22T12:07:02;4.93;;;1.90;;
64339;SDS011;50674;53.290;-9.080;2022-07-22T12:09:30;4.72;;;1.67;;
64339;SDS011;50674;53.290;-9.080;2022-07-22T12:11:58;4.38;;;1.63;;
64339;SDS011;50674;53.290;-9.080;2022-07-22T12:14:26;3.50;;;1.73;;
64339;SDS011;50674;53.290;-9.080;2022-07-22T12:19:32;3.80;;;1.58;;
64339;SDS011;50674;53.290;-9.080;2022-07-22T12:22:07;2.90;;;1.67;;
64339;SDS011;50674;53.290;-9.080;2022-07-22T12:24:44;4.60;;;1.55;;
64339;SDS011;50674;53.290;-9.080;2022-07-22T12:27:22;3.10;;;1.80;;
64339;SDS011;50674;53.290;-9.080;2022-07-22T12:34:55;4.95;;;1.90;;
64339;SDS011;50674;53.290;-9.080;2022-07-22T12:43:14;3.78;;;1.73;;
64339;SDS011;50674;53.290;-9.080;2022-07-22T12:45:29;3.37;;;1.80;;
64339;SDS011;50674;53.290;-9.080;2022-07-22T12:48:06;3.25;;;1.77;;
64339;SDS011;50674;53.290;-9.080;2022-07-22T12:50:40;4.13;;;1.50;;
64339;SDS011;50674;53.290;-9.080;2022-07-22T12:53:20;3.58;;;1.65;;
64339;SDS011;50674;53.290;-9.080;2022-07-22T12:58:13;3.67;;;1.70;;
64339;SDS011;50674;53.290;-9.080;2022-07-22T13:00:41;3.50;;;1.58;;
64339;SDS011;50674;53.290;-9.080;2022-07-22T13:03:11;5.10;;;1.90;;
64339;SDS011;50674;53.290;-9.080;2022-07-22T13:05:36;3.45;;;1.40;;
64339;SDS011;50674;53.290;-9.080;2022-07-22T13:08:03;3.92;;;1.52;;
64339;SDS011;50674;53.290;-9.080;2022-07-22T13:10:30;4.30;;;1.55;;
64339;SDS011;50674;53.290;-9.080;2022-07-22T13:12:56;3.95;;;2.05;;
64339;SDS011;50674;53.290;-9.080;2022-07-22T13:15:22;2.05;;;1.17;;
64339;SDS011;50674;53.290;-9.080;2022-07-22T13:17:49;5.00;;;2.45;;
64339;SDS011;50674;53.290;-9.080;2022-07-22T13:20:15;5.60;;;1.65;;
64339;SDS011;50674;53.290;-9.080;2022-07-22T13:22:43;4.35;;;1.50;;
64339;SDS011;50674;53.290;-9.080;2022-07-22T13:25:09;7.75;;;1.95;;
64339;SDS011;50674;53.290;-9.080;2022-07-22T13:27:35;4.75;;;1.95;;
64339;SDS011;50674;53.290;-9.080;2022-07-22T13:30:01;3.33;;;1.63;;
64339;SDS011;50674;53.290;-9.080;2022-07-22T13:32:27;1.98;;;1.42;;
64339;SDS011;50674;53.290;-9.080;2022-07-22T13:34:53;2.97;;;1.40;;
64339;SDS011;50674;53.290;-9.080;2022-07-22T13:37:20;4.70;;;1.70;;
64339;SDS011;50674;53.290;-9.080;2022-07-22T13:39:46;4.68;;;1.50;;
64339;SDS011;50674;53.290;-9.080;2022-07-22T13:42:13;3.38;;;1.55;;
64339;SDS011;50674;53.290;-9.080;2022-07-22T13:44:43;3.00;;;1.60;;
64339;SDS011;50674;53.290;-9.080;2022-07-22T13:47:11;6.13;;;1.50;;
64339;SDS011;50674;53.290;-9.080;2022-07-22T13:49:37;3.00;;;1.58;;
64339;SDS011;50674;53.290;-9.080;2022-07-22T13:52:03;5.05;;;2.03;;
64339;SDS011;50674;53.290;-9.080;2022-07-22T13:54:30;3.65;;;1.77;;
64339;SDS011;50674;53.290;-9.080;2022-07-22T13:57:00;3.30;;;1.77;;
64339;SDS011;50674;53.290;-9.080;2022-07-22T13:59:26;2.22;;;1.55;;
64339;SDS011;50674;53.290;-9.080;2022-07-22T14:01:53;2.65;;;1.60;;
64339;SDS011;50674;53.290;-9.080;2022-07-22T14:04:19;4.15;;;1.80;;
64339;SDS011;50674;53.290;-9.080;2022-07-22T14:06:45;2.03;;;1.45;;
64339;SDS011;50674;53.290;-9.080;2022-07-22T14:09:11;3.05;;;1.75;;
64339;SDS011;50674;53.290;-9.080;2022-07-22T14:11:36;2.58;;;1.63;;
64339;SDS011;50674;53.290;-9.080;2022-07-22T14:14:03;2.70;;;1.60;;
64339;SDS011;50674;53.290;-9.080;2022-07-22T14:16:31;4.55;;;1.73;;
64339;SDS011;50674;53.290;-9.080;2022-07-22T14:19:07;2.65;;;1.50;;
64339;SDS011;50674;53.290;-9.080;2022-07-22T14:21:38;3.80;;;1.48;;
64339;SDS011;50674;53.290;-9.080;2022-07-22T14:24:06;2.70;;;1.77;;
64339;SDS011;50674;53.290;-9.080;2022-07-22T14:26:32;5.75;;;1.95;;
64339;SDS011;50674;53.290;-9.080;2022-07-22T14:29:01;2.80;;;1.50;;
64339;SDS011;50674;53.290;-9.080;2022-07-22T14:31:28;2.45;;;1.63;;
64339;SDS011;50674;53.290;-9.080;2022-07-22T14:33:54;4.07;;;1.65;;
64339;SDS011;50674;53.290;-9.080;2022-07-22T14:36:21;6.47;;;1.80;;
64339;SDS011;50674;53.290;-9.080;2022-07-22T14:38:47;4.30;;;1.73;;
64339;SDS011;50674;53.290;-9.080;2022-07-22T14:41:15;4.53;;;2.10;;
64339;SDS011;50674;53.290;-9.080;2022-07-22T14:43:41;2.53;;;1.65;;
64339;SDS011;50674;53.290;-9.080;2022-07-22T14:46:07;4.53;;;1.65;;
64339;SDS011;50674;53.290;-9.080;2022-07-22T14:48:36;2.33;;;1.55;;
64339;SDS011;50674;53.290;-9.080;2022-07-22T14:51:03;3.88;;;1.70;;
64339;SDS011;50674;53.290;-9.080;2022-07-22T14:53:29;5.88;;;1.88;;
64339;SDS011;50674;53.290;-9.080;2022-07-22T14:55:56;3.65;;;1.98;;
64339;SDS011;50674;53.290;-9.080;2022-07-22T14:58:22;2.75;;;1.80;;
64339;SDS011;50674;53.290;-9.080;2022-07-22T15:00:48;4.13;;;1.98;;
64339;SDS011;50674;53.290;-9.080;2022-07-22T15:03:14;3.55;;;1.67;;
64339;SDS011;50674;53.290;-9.080;2022-07-22T15:05:39;3.28;;;1.80;;
64339;SDS011;50674;53.290;-9.080;2022-07-22T15:08:06;4.10;;;1.63;;
64339;SDS011;50674;53.290;-9.080;2022-07-22T15:10:32;3.55;;;1.83;;
64339;SDS011;50674;53.290;-9.080;2022-07-22T15:12:58;3.78;;;1.80;;
64339;SDS011;50674;53.290;-9.080;2022-07-22T15:15:24;6.03;;;2.20;;
64339;SDS011;50674;53.290;-9.080;2022-07-22T15:17:50;3.33;;;1.85;;
64339;SDS011;50674;53.290;-9.080;2022-07-22T15:20:16;3.78;;;2.22;;
64339;SDS011;50674;53.290;-9.080;2022-07-22T15:22:42;3.83;;;1.65;;
64339;SDS011;50674;53.290;-9.080;2022-07-22T15:25:08;3.15;;;1.77;;
64339;SDS011;50674;53.290;-9.080;2022-07-22T15:27:34;6.05;;;1.92;;
64339;SDS011;50674;53.290;-9.080;2022-07-22T15:30:04;6.07;;;1.77;;
64339;SDS011;50674;53.290;-9.080;2022-07-22T15:32:31;5.45;;;1.80;;
64339;SDS011;50674;53.290;-9.080;2022-07-22T15:34:57;4.47;;;1.70;;
64339;SDS011;50674;53.290;-9.080;2022-07-22T15:37:24;6.80;;;2.10;;
64339;SDS011;50674;53.290;-9.080;2022-07-22T15:39:50;5.85;;;2.25;;
64339;SDS011;50674;53.290;-9.080;2022-07-22T15:42:17;3.33;;;1.70;;